Time;durP1;ratioP1;P1;durP2;ratioP2;P2;SDS_P1;SDS_P2;PMS_P1;PMS_P2;Temp;Humidity;BMP_temperature;BMP_pressure;BME280_temperature;BME280_humidity;BME280_pressure;Samples;Min_cycle;Max_cycle;Signal;HPM_P1;HPM_P2
2022/09/21 00:01:50;;;;;;;4.73;3.90;;;8.60;99.90;;;;;;5042330;28;20650;-60
2022/09/21 00:04:15;;;;;;;5.30;3.80;;;8.60;99.90;;;;;;5034204;28;20188;-62
2022/09/21 00:06:41;;;;;;;7.60;3.53;;;8.50;99.90;;;;;;5028028;28;20234;-62
2022/09/21 00:09:08;;;;;;;6.80;3.67;;;8.50;99.90;;;;;;5025691;28;20523;-61
2022/09/21 00:11:35;;;;;;;5.70;4.30;;;8.50;99.90;;;;;;5028393;28;20261;-61
2022/09/21 00:14:06;;;;;;;12.10;4.13;;;8.50;99.90;;;;;;5026096;28;20466;-60
2022/09/21 00:16:31;;;;;;;5.40;3.77;;;8.50;99.90;;;;;;5029810;28;20415;-61
2022/09/21 00:18:57;;;;;;;7.03;4.30;;;8.40;99.90;;;;;;5012401;28;20449;-62
2022/09/21 00:21:23;;;;;;;5.97;3.83;;;8.40;99.90;;;;;;5028531;28;20175;-62
2022/09/21 00:23:49;;;;;;;5.13;3.70;;;8.40;99.90;;;;;;5014493;28;20534;-60
2022/09/21 00:26:21;;;;;;;5.00;3.57;;;8.40;99.90;;;;;;5029910;28;20780;-62
2022/09/21 00:28:53;;;;;;;12.53;3.43;;;8.30;99.90;;;;;;5023073;28;20431;-61
2022/09/21 00:31:19;;;;;;;10.13;3.27;;;8.30;99.90;;;;;;5026179;28;20552;-61
2022/09/21 00:33:45;;;;;;;2.97;2.77;;;8.20;99.90;;;;;;5028724;28;20450;-62
2022/09/21 00:36:18;;;;;;;7.80;3.50;;;8.20;99.90;;;;;;5025552;28;20434;-62
2022/09/21 00:38:45;;;;;;;3.73;3.20;;;8.20;99.90;;;;;;5020573;28;20462;-61
2022/09/21 00:41:11;;;;;;;10.47;3.83;;;8.10;99.90;;;;;;5029251;28;20438;-62
2022/09/21 00:43:45;;;;;;;6.50;3.40;;;8.10;99.90;;;;;;5027131;28;22184;-61
2022/09/21 00:46:17;;;;;;;7.53;3.80;;;8.10;99.90;;;;;;5024846;28;20435;-60
2022/09/21 00:48:45;;;;;;;13.00;3.60;;;8.10;99.90;;;;;;5026606;28;20861;-61
2022/09/21 00:51:11;;;;;;;5.50;3.30;;;8.10;99.90;;;;;;5027731;28;20447;-62
2022/09/21 00:53:38;;;;;;;7.07;3.30;;;8.10;99.90;;;;;;5025961;28;20470;-62
2022/09/21 00:56:05;;;;;;;5.63;3.40;;;8.10;99.90;;;;;;5017194;28;20969;-61
2022/09/21 00:58:38;;;;;;;9.37;4.00;;;8.10;99.90;;;;;;5028805;28;20917;-60
2022/09/21 01:01:04;;;;;;;4.70;3.27;;;8.10;99.90;;;;;;5026387;28;21187;-61
2022/09/21 01:03:31;;;;;;;5.77;3.40;;;8.10;99.90;;;;;;5025485;28;20466;-61
2022/09/21 01:05:56;;;;;;;6.60;3.57;;;8.10;99.90;;;;;;5025537;28;20171;-62
2022/09/21 01:08:24;;;;;;;3.73;3.07;;;8.10;99.90;;;;;;5028178;28;22309;-61
2022/09/21 01:11:21;;;;;;;4.90;3.40;;;8.10;99.90;;;;;;5024772;28;20283;-61
2022/09/21 01:14:00;;;;;;;8.17;3.50;;;8.10;99.90;;;;;;5043578;28;20549;-61
2022/09/21 01:16:32;;;;;;;5.07;3.10;;;8.10;99.90;;;;;;5025675;28;20798;-60
2022/09/21 01:19:25;;;;;;;4.73;3.10;;;8.10;99.90;;;;;;5027413;28;20414;-61
2022/09/21 01:22:06;;;;;;;5.30;3.57;;;8.00;99.90;;;;;;5027922;28;20470;-61
2022/09/21 01:24:35;;;;;;;6.03;3.60;;;8.00;99.90;;;;;;5009709;28;20454;-60
2022/09/21 01:27:25;;;;;;;4.00;2.90;;;7.90;99.90;;;;;;5027725;28;20430;-61
2022/09/21 01:29:55;;;;;;;5.60;3.47;;;7.90;99.90;;;;;;5028135;28;20430;-61
2022/09/21 01:32:24;;;;;;;4.10;3.10;;;7.80;99.90;;;;;;5029561;28;20466;-62
2022/09/21 01:35:11;;;;;;;5.90;3.60;;;7.80;99.90;;;;;;5027324;28;20841;-61
2022/09/21 01:37:58;;;;;;;5.00;3.37;;;7.70;99.90;;;;;;5019259;28;20438;-61
2022/09/21 01:40:35;;;;;;;5.00;3.63;;;7.70;99.90;;;;;;5027969;28;20423;-61
2022/09/21 01:43:04;;;;;;;6.03;3.17;;;7.60;99.90;;;;;;5027080;28;20533;-63
2022/09/21 01:45:34;;;;;;;8.80;4.23;;;7.60;99.90;;;;;;5025355;28;20453;-61
2022/09/21 01:48:00;;;;;;;4.93;3.33;;;7.50;99.90;;;;;;5016612;28;20430;-60
2022/09/21 01:50:31;;;;;;;8.10;3.60;;;7.50;99.90;;;;;;5021744;28;20426;-62
2022/09/21 01:53:19;;;;;;;5.27;3.50;;;7.50;99.90;;;;;;5045217;28;20455;-62
2022/09/21 01:55:52;;;;;;;5.50;3.67;;;7.40;99.90;;;;;;5024610;28;21026;-62
2022/09/21 01:58:32;;;;;;;5.63;3.73;;;7.30;99.90;;;;;;5026214;28;21039;-61
2022/09/21 02:00:58;;;;;;;6.33;4.20;;;7.30;99.90;;;;;;5029572;28;20541;-60
2022/09/21 02:03:37;;;;;;;4.93;3.43;;;7.20;99.90;;;;;;5027703;28;20488;-61
2022/09/21 02:06:05;;;;;;;5.20;3.53;;;7.20;99.90;;;;;;5026599;28;20509;-61
2022/09/21 02:08:32;;;;;;;5.57;3.43;;;7.20;99.90;;;;;;5054596;28;20429;-61
2022/09/21 02:11:00;;;;;;;7.13;3.57;;;7.10;99.90;;;;;;5017040;28;20458;-62
2022/09/21 02:13:33;;;;;;;5.03;3.57;;;7.10;99.90;;;;;;5023879;28;20446;-60
2022/09/21 02:16:14;;;;;;;8.23;3.53;;;7.00;99.90;;;;;;5028482;28;20418;-61
2022/09/21 02:18:49;;;;;;;5.70;3.70;;;7.00;99.90;;;;;;5028075;28;20583;-60
2022/09/21 02:21:54;;;;;;;6.63;3.10;;;7.00;99.90;;;;;;5030297;28;20878;-61
2022/09/21 02:24:27;;;;;;;4.30;3.50;;;7.00;99.90;;;;;;5023342;28;20451;-61
2022/09/21 02:27:10;;;;;;;6.70;3.60;;;6.90;99.90;;;;;;5051710;28;20430;-61
2022/09/21 02:30:04;;;;;;;5.30;3.50;;;6.90;99.90;;;;;;5030946;28;20434;-61
2022/09/21 02:32:52;;;;;;;5.60;3.37;;;6.80;99.90;;;;;;5033506;28;20466;-61
2022/09/21 02:36:02;;;;;;;7.20;3.20;;;6.80;99.90;;;;;;5028051;28;20430;-61
2022/09/21 02:38:40;;;;;;;5.03;3.33;;;6.70;99.90;;;;;;4992801;28;20435;-61
2022/09/21 02:41:22;;;;;;;3.83;2.90;;;6.70;99.90;;;;;;5028257;28;20951;-62
2022/09/21 02:43:56;;;;;;;6.20;3.40;;;6.70;99.90;;;;;;5013846;28;20465;-61
2022/09/21 02:46:30;;;;;;;3.97;3.57;;;6.60;99.90;;;;;;5030339;28;20438;-62
2022/09/21 02:49:18;;;;;;;7.47;3.20;;;6.60;99.90;;;;;;5021174;28;20536;-61
2022/09/21 02:51:49;;;;;;;9.30;3.40;;;6.60;99.90;;;;;;5024174;28;20454;-60
2022/09/21 02:54:19;;;;;;;6.40;3.27;;;6.50;99.90;;;;;;5029115;28;20836;-62
2022/09/21 02:56:47;;;;;;;4.40;3.50;;;6.50;99.90;;;;;;5032944;28;20422;-62
2022/09/21 02:59:15;;;;;;;5.07;4.07;;;6.50;99.90;;;;;;5027698;28;20477;-61
2022/09/21 03:01:41;;;;;;;5.47;3.60;;;6.50;99.90;;;;;;5030557;28;20829;-61
2022/09/21 03:04:07;;;;;;;6.57;3.60;;;6.50;99.90;;;;;;5021320;28;20461;-61
2022/09/21 03:06:33;;;;;;;4.57;3.60;;;6.50;99.90;;;;;;5030835;28;20434;-61
2022/09/21 03:08:59;;;;;;;6.80;3.57;;;6.50;99.90;;;;;;5028800;28;20457;-61
2022/09/21 03:11:25;;;;;;;6.40;3.60;;;6.40;99.90;;;;;;5034319;28;20196;-61
2022/09/21 03:13:51;;;;;;;4.37;3.60;;;6.40;99.90;;;;;;5011388;28;20295;-61
2022/09/21 03:16:17;;;;;;;5.10;3.67;;;6.40;99.90;;;;;;5025819;28;20517;-62
2022/09/21 03:18:43;;;;;;;5.70;3.50;;;6.30;99.90;;;;;;5029924;28;20176;-61
2022/09/21 03:21:12;;;;;;;15.37;3.50;;;6.30;99.90;;;;;;5032210;28;20437;-63
2022/09/21 03:23:38;;;;;;;5.60;3.73;;;6.20;99.90;;;;;;5045623;28;20462;-61
2022/09/21 03:26:05;;;;;;;7.53;3.67;;;6.20;99.90;;;;;;5030967;28;20433;-62
2022/09/21 03:28:30;;;;;;;5.03;3.97;;;6.20;99.90;;;;;;5055891;28;20414;-60
2022/09/21 03:30:56;;;;;;;4.57;3.77;;;6.20;99.90;;;;;;5032005;28;20529;-62
2022/09/21 03:33:24;;;;;;;3.90;3.50;;;6.10;99.90;;;;;;5021034;28;20279;-61
2022/09/21 03:35:50;;;;;;;4.87;3.40;;;6.10;99.90;;;;;;5027759;28;20422;-60
2022/09/21 03:38:17;;;;;;;5.23;3.57;;;6.00;99.90;;;;;;5030581;28;20442;-61
2022/09/21 03:40:47;;;;;;;6.97;3.90;;;6.00;99.90;;;;;;5029267;28;20513;-61
2022/09/21 03:43:12;;;;;;;8.40;3.77;;;6.00;99.90;;;;;;5006383;28;20458;-62
2022/09/21 03:45:40;;;;;;;6.23;3.73;;;5.90;99.90;;;;;;5030029;28;20428;-62
2022/09/21 03:48:07;;;;;;;5.57;4.10;;;5.90;99.90;;;;;;5028536;28;20650;-62
2022/09/21 03:50:33;;;;;;;6.93;3.97;;;5.90;99.90;;;;;;5008214;28;20453;-61
2022/09/21 03:52:58;;;;;;;3.77;3.33;;;5.90;99.90;;;;;;5031373;28;21122;-61
2022/09/21 03:55:25;;;;;;;7.67;3.73;;;5.80;99.90;;;;;;5030073;28;20199;-62
2022/09/21 03:57:50;;;;;;;6.33;4.40;;;5.80;99.90;;;;;;5021435;28;20180;-61
2022/09/21 04:00:16;;;;;;;3.73;3.20;;;5.80;99.90;;;;;;5031231;28;20444;-62
2022/09/21 04:02:42;;;;;;;7.70;3.60;;;5.80;99.90;;;;;;5025959;28;20246;-59
2022/09/21 04:05:10;;;;;;;9.83;4.30;;;5.70;99.90;;;;;;5021088;28;20889;-59
2022/09/21 04:07:36;;;;;;;8.97;3.70;;;5.70;99.90;;;;;;5027367;28;20275;-62
2022/09/21 04:10:05;;;;;;;6.53;3.50;;;5.70;99.90;;;;;;5018082;28;20526;-62
2022/09/21 04:12:35;;;;;;;5.80;3.60;;;5.60;99.90;;;;;;5018046;28;20214;-61
2022/09/21 04:15:00;;;;;;;6.97;4.17;;;5.60;99.90;;;;;;5027474;28;20423;-61
2022/09/21 04:17:27;;;;;;;8.50;4.53;;;5.60;99.90;;;;;;5023139;28;20420;-62
2022/09/21 04:19:53;;;;;;;5.80;3.93;;;5.60;99.90;;;;;;5027664;28;20270;-62
2022/09/21 04:22:18;;;;;;;7.70;4.07;;;5.60;99.90;;;;;;5019608;28;20955;-60
2022/09/21 04:24:44;;;;;;;6.90;3.63;;;5.50;99.90;;;;;;5022508;28;20178;-62
2022/09/21 04:27:10;;;;;;;8.80;4.10;;;5.50;99.90;;;;;;5026632;28;20693;-61
2022/09/21 04:29:37;;;;;;;4.67;3.77;;;5.50;99.90;;;;;;5003225;28;20180;-61
2022/09/21 04:32:04;;;;;;;3.80;3.37;;;5.50;99.90;;;;;;5020816;28;20549;-60
2022/09/21 04:34:30;;;;;;;6.33;4.10;;;5.50;99.90;;;;;;5026856;28;20485;-61
2022/09/21 04:36:59;;;;;;;4.03;3.30;;;5.50;99.90;;;;;;5028282;28;20442;-62
2022/09/21 04:39:25;;;;;;;8.90;4.00;;;5.50;99.90;;;;;;5027734;28;20834;-62
2022/09/21 04:41:51;;;;;;;6.03;4.00;;;5.40;99.90;;;;;;5030685;28;20438;-61
2022/09/21 04:44:19;;;;;;;6.10;3.63;;;5.40;99.90;;;;;;5029213;28;20450;-63
2022/09/21 04:46:45;;;;;;;8.00;3.27;;;5.40;99.90;;;;;;5008384;28;20725;-63
2022/09/21 04:49:11;;;;;;;6.00;3.67;;;5.40;99.90;;;;;;5028609;28;20454;-61
2022/09/21 04:51:36;;;;;;;7.13;4.13;;;5.30;99.90;;;;;;5023834;28;20282;-60
2022/09/21 04:54:03;;;;;;;5.10;4.47;;;5.30;99.90;;;;;;5006179;28;20203;-61
2022/09/21 04:56:29;;;;;;;11.53;4.87;;;5.30;99.90;;;;;;5017218;28;20176;-60
2022/09/21 04:58:55;;;;;;;8.97;4.50;;;5.20;99.90;;;;;;5026080;28;20987;-62
2022/09/21 05:01:20;;;;;;;7.40;4.57;;;5.20;99.90;;;;;;5020212;28;20440;-60
2022/09/21 05:03:46;;;;;;;11.83;3.30;;;5.20;99.90;;;;;;5031001;28;20199;-60
2022/09/21 05:06:12;;;;;;;5.53;4.27;;;5.20;99.90;;;;;;5023162;28;20445;-60
2022/09/21 05:11:23;;;;;;;7.07;4.07;;;5.10;99.90;;;;;;5022118;28;20210;-61
2022/09/21 05:13:49;;;;;;;6.87;4.60;;;5.10;99.90;;;;;;5023611;28;20446;-60
2022/09/21 05:16:15;;;;;;;5.87;4.40;;;5.10;99.90;;;;;;5022285;28;20496;-62
2022/09/21 05:18:41;;;;;;;7.67;4.20;;;5.10;99.90;;;;;;5008231;28;20682;-61
2022/09/21 05:21:09;;;;;;;11.30;4.23;;;5.10;99.90;;;;;;5029774;28;20423;-62
2022/09/21 05:23:35;;;;;;;8.97;5.00;;;5.10;99.90;;;;;;5021029;28;20208;-63
2022/09/21 05:26:01;;;;;;;5.40;3.90;;;5.00;99.90;;;;;;5008985;28;20438;-63
2022/09/21 05:28:27;;;;;;;7.37;4.20;;;5.00;99.90;;;;;;5027224;28;20179;-63
2022/09/21 05:31:11;;;;;;;8.50;4.67;;;5.00;99.90;;;;;;5023188;28;20203;-61
2022/09/21 05:33:41;;;;;;;7.63;4.37;;;5.00;99.90;;;;;;5021916;28;20541;-62
2022/09/21 05:36:27;;;;;;;5.47;4.10;;;5.00;99.90;;;;;;5027339;28;20457;-63
2022/09/21 05:38:53;;;;;;;4.53;3.63;;;5.00;99.90;;;;;;5018055;28;20438;-62
2022/09/21 05:41:19;;;;;;;11.00;4.13;;;5.00;99.90;;;;;;5022518;28;20445;-62
2022/09/21 05:43:45;;;;;;;6.93;3.90;;;5.00;99.90;;;;;;5031131;28;20853;-62
2022/09/21 05:46:30;;;;;;;5.40;4.00;;;5.00;99.90;;;;;;5020751;28;20950;-63
2022/09/21 05:49:01;;;;;;;7.00;4.70;;;5.00;99.90;;;;;;5026811;28;20186;-62
2022/09/21 05:51:46;;;;;;;16.70;5.80;;;5.00;99.90;;;;;;5030188;28;20458;-62
2022/09/21 05:54:37;;;;;;;7.87;5.23;;;5.00;99.90;;;;;;5012449;28;20493;-62
2022/09/21 05:57:06;;;;;;;16.13;5.30;;;5.00;99.90;;;;;;5025472;28;20454;-62
2022/09/21 05:59:56;;;;;;;6.90;4.67;;;5.00;99.90;;;;;;5030695;28;20452;-62
2022/09/21 06:02:56;;;;;;;9.30;4.90;;;5.00;99.90;;;;;;5030066;28;20438;-60
2022/09/21 06:05:22;;;;;;;13.77;5.17;;;5.00;99.90;;;;;;5029505;28;20446;-62
2022/09/21 06:07:48;;;;;;;7.70;5.07;;;5.10;99.90;;;;;;5030819;28;20517;-61
2022/09/21 06:10:15;;;;;;;8.00;4.90;;;5.10;99.90;;;;;;5027292;28;20513;-61
2022/09/21 06:12:40;;;;;;;9.30;5.17;;;5.20;99.90;;;;;;5043113;28;20227;-62
2022/09/21 06:15:10;;;;;;;6.80;5.20;;;5.20;99.90;;;;;;5022768;28;20517;-62
2022/09/21 06:17:35;;;;;;;8.53;4.90;;;5.30;99.90;;;;;;5019365;28;20676;-63
2022/09/21 06:20:02;;;;;;;9.37;5.43;;;5.30;99.90;;;;;;5041398;28;20422;-62
2022/09/21 06:22:28;;;;;;;7.70;5.10;;;5.40;99.90;;;;;;5028529;28;20227;-62
2022/09/21 06:24:53;;;;;;;9.07;5.50;;;5.50;99.90;;;;;;5030249;28;20452;-62
2022/09/21 06:27:19;;;;;;;8.50;5.50;;;5.50;99.90;;;;;;5029410;28;20501;-61
2022/09/21 06:29:44;;;;;;;6.20;4.57;;;5.60;99.90;;;;;;5028138;28;20184;-61
2022/09/21 06:32:10;;;;;;;8.53;4.47;;;5.70;99.90;;;;;;5026151;28;20218;-62
2022/09/21 06:34:36;;;;;;;5.87;4.40;;;5.70;99.90;;;;;;5028153;28;20283;-62
2022/09/21 06:37:02;;;;;;;6.60;4.20;;;5.70;99.90;;;;;;5026530;28;20187;-63
2022/09/21 06:39:28;;;;;;;6.70;4.37;;;5.70;99.90;;;;;;5023348;28;20521;-63
2022/09/21 06:41:54;;;;;;;4.13;3.73;;;5.70;99.90;;;;;;5029776;28;20426;-63
2022/09/21 06:44:19;;;;;;;4.93;3.73;;;5.80;99.90;;;;;;5025317;28;20206;-63
2022/09/21 06:46:45;;;;;;;4.53;3.93;;;5.80;99.90;;;;;;5024853;28;20436;-62
2022/09/21 06:49:11;;;;;;;4.80;4.10;;;5.90;99.90;;;;;;5029510;28;20179;-62
2022/09/21 06:51:37;;;;;;;8.53;4.13;;;5.90;99.90;;;;;;5028924;28;20207;-62
2022/09/21 06:54:02;;;;;;;6.90;4.13;;;6.00;99.90;;;;;;5039800;28;20207;-62
2022/09/21 06:56:28;;;;;;;5.70;4.20;;;6.10;99.90;;;;;;5026333;28;20298;-63
2022/09/21 06:58:54;;;;;;;7.80;3.97;;;6.10;99.90;;;;;;5029676;28;20191;-61
2022/09/21 07:01:20;;;;;;;9.20;4.23;;;6.20;99.90;;;;;;5031117;28;20178;-62
2022/09/21 07:03:49;;;;;;;6.53;4.30;;;6.30;99.90;;;;;;5028170;28;20466;-61
2022/09/21 07:06:16;;;;;;;11.60;5.13;;;6.30;99.90;;;;;;5035189;28;20258;-62
2022/09/21 07:08:43;;;;;;;9.23;5.20;;;6.50;99.90;;;;;;5032968;28;20438;-62
2022/09/21 07:11:09;;;;;;;7.03;4.40;;;6.60;99.90;;;;;;5024688;28;20601;-62
2022/09/21 07:13:35;;;;;;;7.17;4.77;;;6.70;99.90;;;;;;5026171;28;20987;-61
2022/09/21 07:16:05;;;;;;;8.60;5.17;;;6.80;99.90;;;;;;5025489;28;20180;-63
2022/09/21 07:18:33;;;;;;;7.20;4.37;;;6.90;99.90;;;;;;5025592;28;20179;-63
2022/09/21 07:21:05;;;;;;;7.10;4.83;;;7.00;99.90;;;;;;5029042;28;21095;-63
2022/09/21 07:23:31;;;;;;;9.10;4.60;;;7.10;99.90;;;;;;5028983;28;20446;-63
2022/09/21 07:26:05;;;;;;;6.43;3.90;;;7.30;99.90;;;;;;5028160;28;20747;-61
2022/09/21 07:28:30;;;;;;;8.93;3.47;;;7.40;99.90;;;;;;5017041;28;20430;-62
2022/09/21 07:30:57;;;;;;;6.53;3.80;;;7.50;99.90;;;;;;5023419;28;20891;-62
2022/09/21 07:33:24;;;;;;;5.07;3.63;;;7.60;99.90;;;;;;5027295;28;20698;-62
2022/09/21 07:35:57;;;;;;;3.97;2.87;;;7.80;99.90;;;;;;5023993;28;20438;-66
2022/09/21 07:38:23;;;;;;;5.03;3.07;;;7.90;99.90;;;;;;5028519;28;20434;-63
2022/09/21 07:40:49;;;;;;;4.20;3.20;;;8.00;99.90;;;;;;5025204;28;20509;-62
2022/09/21 07:43:15;;;;;;;6.80;2.80;;;8.10;99.90;;;;;;5028338;28;20938;-63
2022/09/21 07:45:41;;;;;;;5.87;3.33;;;8.20;99.90;;;;;;5028976;28;20168;-62
2022/09/21 07:48:09;;;;;;;7.33;2.67;;;8.40;99.90;;;;;;5025309;28;21035;-61
2022/09/21 07:50:37;;;;;;;3.80;2.80;;;8.50;99.90;;;;;;5025646;28;20259;-61
2022/09/21 07:53:03;;;;;;;4.30;3.00;;;8.60;99.90;;;;;;5029340;28;20509;-62
2022/09/21 07:55:29;;;;;;;6.80;3.13;;;8.80;99.90;;;;;;5026619;28;20450;-61
2022/09/21 08:00:39;;;;;;;5.63;2.80;;;9.00;99.90;;;;;;5028410;28;20466;-61
2022/09/21 08:03:05;;;;;;;7.30;3.93;;;9.10;99.90;;;;;;5022287;28;21139;-63
2022/09/21 08:05:32;;;;;;;4.90;3.80;;;9.20;99.90;;;;;;5027271;28;20612;-63
2022/09/21 08:07:57;;;;;;;4.60;2.80;;;9.30;99.90;;;;;;5026084;28;20306;-62
2022/09/21 08:10:27;;;;;;;10.50;3.00;;;9.40;99.50;;;;;;5024429;28;20955;-62
2022/09/21 08:12:53;;;;;;;5.07;2.93;;;9.50;98.80;;;;;;5026956;28;20207;-61
2022/09/21 08:15:18;;;;;;;4.23;2.43;;;9.60;98.20;;;;;;5025890;28;20924;-62
2022/09/21 08:17:44;;;;;;;6.27;2.47;;;9.70;96.40;;;;;;5026161;28;20433;-63
2022/09/21 08:20:09;;;;;;;5.37;2.63;;;9.80;95.90;;;;;;5027234;28;20686;-64
2022/09/21 08:22:35;;;;;;;2.83;2.10;;;9.90;95.70;;;;;;5026231;28;20215;-61
2022/09/21 08:25:01;;;;;;;7.57;2.70;;;10.00;94.10;;;;;;5024500;28;20203;-63
2022/09/21 08:27:27;;;;;;;5.50;3.20;;;10.10;92.60;;;;;;5027482;28;20686;-61
2022/09/21 08:29:53;;;;;;;4.20;2.03;;;10.20;91.70;;;;;;5026341;28;20179;-60
2022/09/21 08:32:19;;;;;;;2.37;2.10;;;10.30;91.10;;;;;;5024443;28;20862;-60
2022/09/21 08:34:44;;;;;;;3.87;2.40;;;10.40;91.00;;;;;;5025860;28;20619;-59
2022/09/21 08:37:10;;;;;;;10.00;2.63;;;10.60;89.60;;;;;;5026156;28;20208;-60
2022/09/21 08:39:36;;;;;;;2.90;1.80;;;10.70;89.60;;;;;;5026055;28;20604;-60
2022/09/21 08:42:23;;;;;;;8.07;3.00;;;10.80;88.70;;;;;;5023605;28;20539;-60
2022/09/21 08:44:59;;;;;;;6.13;2.10;;;10.90;85.40;;;;;;5020396;28;20175;-59
2022/09/21 08:47:32;;;;;;;6.30;2.03;;;11.00;85.40;;;;;;5023551;28;20461;-60
2022/09/21 08:50:00;;;;;;;4.63;1.80;;;11.20;82.20;;;;;;5023019;28;20511;-61
2022/09/21 08:52:26;;;;;;;7.93;1.90;;;11.30;80.40;;;;;;5003449;28;20474;-60
2022/09/21 08:54:57;;;;;;;4.40;2.00;;;11.40;79.10;;;;;;5026384;28;21007;-60
2022/09/21 08:57:31;;;;;;;3.63;2.23;;;11.50;74.30;;;;;;5026612;28;20183;-60
2022/09/21 08:59:59;;;;;;;3.73;1.73;;;11.60;74.10;;;;;;5030211;28;20441;-60
2022/09/21 09:02:51;;;;;;;1.93;1.80;;;11.70;73.10;;;;;;5023989;28;20439;-60
2022/09/21 09:05:28;;;;;;;6.00;2.10;;;11.80;71.90;;;;;;4993956;28;20473;-61
2022/09/21 09:08:31;;;;;;;5.17;2.03;;;11.90;69.50;;;;;;5023773;28;20425;-59
2022/09/21 09:11:19;;;;;;;2.97;1.83;;;12.00;70.10;;;;;;5024530;28;20515;-60
2022/09/21 09:14:09;;;;;;;3.43;1.87;;;12.10;68.10;;;;;;5019941;28;20901;-60
2022/09/21 09:17:16;;;;;;;2.00;1.87;;;12.20;68.30;;;;;;5022179;28;20418;-61
2022/09/21 09:19:52;;;;;;;7.13;1.90;;;12.40;67.10;;;;;;5024439;28;20952;-61
2022/09/21 09:22:24;;;;;;;3.83;1.97;;;12.50;65.30;;;;;;5035404;28;20409;-61
2022/09/21 09:24:52;;;;;;;5.77;1.90;;;12.60;64.30;;;;;;5022440;28;21168;-61
2022/09/21 09:27:20;;;;;;;2.97;1.90;;;12.70;64.00;;;;;;5027174;28;20465;-61
2022/09/21 09:29:59;;;;;;;3.37;1.70;;;12.80;63.90;;;;;;5027184;28;20517;-61
2022/09/21 09:32:48;;;;;;;3.73;1.70;;;12.90;63.20;;;;;;5025112;28;20584;-60
2022/09/21 09:35:37;;;;;;;3.30;1.40;;;13.00;63.10;;;;;;5013103;28;20444;-62
2022/09/21 09:38:28;;;;;;;3.67;2.00;;;13.10;61.40;;;;;;5024393;28;20445;-58
2022/09/21 09:40:54;;;;;;;2.30;1.40;;;13.20;61.90;;;;;;5019857;28;20434;-61
2022/09/21 09:43:47;;;;;;;3.00;1.83;;;13.20;60.70;;;;;;5032594;28;20447;-62
2022/09/21 09:46:21;;;;;;;2.07;1.30;;;13.30;60.80;;;;;;5004453;28;20172;-62
2022/09/21 09:49:14;;;;;;;4.10;1.50;;;13.40;59.70;;;;;;5024419;28;20422;-61
2022/09/21 09:51:41;;;;;;;6.53;1.50;;;13.50;59.30;;;;;;5018860;28;20531;-61
2022/09/21 09:54:14;;;;;;;2.33;1.50;;;13.60;59.50;;;;;;5021157;28;20461;-62
2022/09/21 09:56:40;;;;;;;3.13;1.60;;;13.70;59.20;;;;;;5024516;28;20442;-63
2022/09/21 09:59:25;;;;;;;4.13;1.73;;;13.80;57.90;;;;;;5022748;28;20485;-63
2022/09/21 10:02:03;;;;;;;2.63;1.73;;;13.80;58.50;;;;;;5017530;28;20446;-62
2022/09/21 10:04:29;;;;;;;6.53;1.57;;;13.90;57.20;;;;;;5018654;28;21010;-63
2022/09/21 10:06:55;;;;;;;6.10;1.80;;;13.90;55.80;;;;;;5002224;28;20441;-62
2022/09/21 10:09:27;;;;;;;4.13;1.77;;;13.80;56.10;;;;;;5020224;28;20198;-62
2022/09/21 10:12:00;;;;;;;2.60;1.77;;;13.80;56.10;;;;;;5028952;28;20489;-60
2022/09/21 10:14:30;;;;;;;4.13;1.97;;;13.90;55.60;;;;;;5010924;28;20478;-63
2022/09/21 10:17:02;;;;;;;14.07;5.60;;;14.00;57.00;;;;;;5019839;28;20427;-60
2022/09/21 10:19:29;;;;;;;8.40;3.00;;;14.20;58.50;;;;;;5023980;28;20434;-60
2022/09/21 10:21:58;;;;;;;7.13;1.80;;;14.50;59.90;;;;;;5041375;28;20432;-60
2022/09/21 10:24:39;;;;;;;3.50;1.97;;;14.70;58.60;;;;;;5023189;28;20458;-60
2022/09/21 10:27:12;;;;;;;2.17;1.70;;;15.00;58.90;;;;;;5028356;28;20817;-59
2022/09/21 10:29:42;;;;;;;6.10;1.80;;;15.10;58.00;;;;;;5026553;28;20513;-60
2022/09/21 10:32:16;;;;;;;3.60;1.53;;;15.30;56.60;;;;;;5006372;28;20500;-60
2022/09/21 10:35:00;;;;;;;5.80;1.97;;;15.40;56.00;;;;;;5021769;28;20453;-60
2022/09/21 10:37:29;;;;;;;2.93;1.50;;;15.60;55.50;;;;;;5025732;28;20442;-60
2022/09/21 10:39:56;;;;;;;2.53;1.30;;;15.70;54.80;;;;;;5029399;28;20950;-65
2022/09/21 10:42:22;;;;;;;2.63;1.80;;;15.80;53.80;;;;;;5025662;28;20525;-63
2022/09/21 10:45:12;;;;;;;4.33;1.30;;;15.80;53.80;;;;;;5032256;28;20989;-64
2022/09/21 10:47:49;;;;;;;3.30;1.60;;;15.70;52.80;;;;;;5010315;28;20442;-62
2022/09/21 10:50:25;;;;;;;6.60;1.50;;;15.70;52.60;;;;;;5019361;28;21095;-64
2022/09/21 10:52:56;;;;;;;2.80;1.50;;;15.70;52.60;;;;;;5017893;28;20457;-63
2022/09/21 10:55:22;;;;;;;2.77;1.57;;;15.70;51.30;;;;;;5015878;28;20975;-62
2022/09/21 10:57:50;;;;;;;7.80;1.40;;;15.70;51.60;;;;;;5029168;28;20464;-62
2022/09/21 11:00:25;;;;;;;5.73;1.70;;;15.80;52.10;;;;;;5026083;28;20426;-62
2022/09/21 11:02:51;;;;;;;2.50;1.57;;;15.90;51.60;;;;;;5020074;28;20487;-63
2022/09/21 11:05:20;;;;;;;2.23;1.60;;;16.00;51.10;;;;;;5025889;28;20430;-62
2022/09/21 11:07:54;;;;;;;2.20;1.50;;;16.10;52.40;;;;;;5027807;28;20434;-63
2022/09/21 11:10:29;;;;;;;2.77;1.23;;;16.30;52.20;;;;;;5027545;28;20446;-62
2022/09/21 11:13:29;;;;;;;2.77;1.30;;;16.50;51.10;;;;;;5025487;28;20469;-62
2022/09/21 11:16:06;;;;;;;1.53;1.30;;;16.60;50.00;;;;;;5020561;28;20870;-62
2022/09/21 11:18:35;;;;;;;4.80;1.30;;;16.70;48.40;;;;;;5043391;28;20438;-63
2022/09/21 11:21:10;;;;;;;1.30;1.20;;;16.70;47.50;;;;;;5022302;28;20442;-63
2022/09/21 11:24:02;;;;;;;2.10;1.90;;;16.70;46.60;;;;;;5026632;28;20953;-62
2022/09/21 11:26:51;;;;;;;3.30;1.13;;;16.70;46.50;;;;;;5021460;28;20488;-63
2022/09/21 11:29:53;;;;;;;1.20;1.10;;;16.80;46.70;;;;;;5023301;28;20470;-63
2022/09/21 11:32:56;;;;;;;1.37;1.27;;;17.00;46.70;;;;;;5017910;28;20469;-59
2022/09/21 11:35:39;;;;;;;2.47;1.50;;;17.20;47.10;;;;;;5022946;28;20939;-59
2022/09/21 11:38:23;;;;;;;1.53;1.00;;;17.40;47.60;;;;;;5024963;28;20439;-60
2022/09/21 11:41:03;;;;;;;3.00;1.30;;;17.60;46.70;;;;;;5024618;28;20485;-60
2022/09/21 11:43:49;;;;;;;3.23;1.60;;;17.80;47.40;;;;;;5026801;28;22605;-59
2022/09/21 11:46:18;;;;;;;2.80;1.30;;;18.10;46.70;;;;;;5021936;28;20524;-60
2022/09/21 11:48:51;;;;;;;5.90;1.37;;;18.30;45.10;;;;;;5028400;28;20430;-60
2022/09/21 11:51:44;;;;;;;4.97;1.10;;;18.40;44.70;;;;;;5023812;28;21014;-62
2022/09/21 11:54:19;;;;;;;1.63;1.20;;;18.60;44.60;;;;;;5021506;28;20489;-62
2022/09/21 11:56:55;;;;;;;3.30;1.20;;;18.70;45.20;;;;;;5042870;28;20535;-63
2022/09/21 11:59:42;;;;;;;4.60;1.60;;;18.90;46.60;;;;;;5024649;28;21105;-62
2022/09/21 12:02:25;;;;;;;2.73;1.50;;;19.00;45.60;;;;;;5025948;28;20426;-62
2022/09/21 12:05:06;;;;;;;1.43;1.07;;;19.10;45.50;;;;;;5022730;28;20513;-62
2022/09/21 12:08:05;;;;;;;1.17;1.07;;;19.30;45.20;;;;;;5020660;28;20449;-62
2022/09/21 12:10:49;;;;;;;1.63;1.20;;;19.30;44.80;;;;;;5019750;28;20641;-61
2022/09/21 12:13:36;;;;;;;6.33;1.67;;;19.40;44.90;;;;;;5023105;28;20504;-63
2022/09/21 12:16:23;;;;;;;1.87;1.40;;;19.50;44.70;;;;;;5027777;28;20853;-64
2022/09/21 12:18:59;;;;;;;2.00;1.47;;;19.60;44.50;;;;;;5018390;28;20427;-64
2022/09/21 12:21:29;;;;;;;1.00;0.90;;;19.70;43.10;;;;;;5021246;28;20434;-63
2022/09/21 12:24:21;;;;;;;2.43;1.20;;;19.40;42.80;;;;;;5022099;28;20589;-62
2022/09/21 12:26:54;;;;;;;5.23;1.30;;;19.10;43.40;;;;;;5025664;28;20426;-61
2022/09/21 12:29:36;;;;;;;1.93;1.27;;;19.00;44.50;;;;;;5022589;28;21004;-62
2022/09/21 12:32:18;;;;;;;1.00;0.90;;;19.10;44.10;;;;;;5021938;28;20520;-61
2022/09/21 12:34:51;;;;;;;4.23;0.93;;;19.30;43.30;;;;;;5020415;28;20450;-62
2022/09/21 12:37:23;;;;;;;2.40;1.20;;;19.40;42.60;;;;;;5026242;28;20438;-63
2022/09/21 12:40:04;;;;;;;3.30;1.00;;;19.60;42.00;;;;;;5028080;28;20426;-62
2022/09/21 12:42:34;;;;;;;1.83;1.00;;;19.80;41.00;;;;;;5030693;28;20800;-62
2022/09/21 12:45:21;;;;;;;1.60;1.00;;;20.10;41.00;;;;;;5023920;28;20448;-62
2022/09/21 12:48:10;;;;;;;2.93;1.00;;;20.40;41.50;;;;;;5023837;28;20517;-62
2022/09/21 12:50:47;;;;;;;1.30;0.90;;;20.50;41.40;;;;;;5024089;28;20418;-62
2022/09/21 12:53:20;;;;;;;1.43;1.10;;;20.60;41.90;;;;;;5024002;28;20971;-63
2022/09/21 12:56:36;;;;;;;1.30;0.80;;;20.60;42.00;;;;;;5021350;28;20956;-62
2022/09/21 12:59:21;;;;;;;4.20;1.30;;;20.70;41.50;;;;;;4919131;29;20474;-63
2022/09/21 13:01:52;;;;;;;1.57;0.90;;;20.80;41.30;;;;;;4927830;29;20838;-62
2022/09/21 13:04:42;;;;;;;2.90;1.00;;;20.80;40.10;;;;;;4992461;28;20458;-62
2022/09/21 13:07:16;;;;;;;4.00;1.00;;;20.80;40.60;;;;;;5005354;28;20485;-62
2022/09/21 13:09:44;;;;;;;2.97;1.07;;;20.80;40.40;;;;;;5024641;28;20461;-62
2022/09/21 13:12:17;;;;;;;1.90;1.27;;;20.70;39.50;;;;;;5023997;28;20477;-62
2022/09/21 13:14:46;;;;;;;5.67;1.40;;;20.70;40.30;;;;;;5020332;28;20442;-61
2022/09/21 13:17:26;;;;;;;4.83;1.13;;;20.90;40.20;;;;;;5022400;28;20524;-62
2022/09/21 13:20:03;;;;;;;1.47;1.00;;;21.00;39.50;;;;;;5021880;28;20422;-62
2022/09/21 13:22:36;;;;;;;4.33;0.90;;;21.10;40.10;;;;;;5016856;28;20874;-62
2022/09/21 13:25:07;;;;;;;1.20;1.10;;;21.20;39.20;;;;;;5028434;28;20450;-62
2022/09/21 13:28:08;;;;;;;2.67;1.37;;;21.20;40.70;;;;;;5034004;28;20440;-61